createdAt,value
2017-10-30T00:00:36.849Z,1005.33
2017-10-30T00:01:47.144Z,1005.4
2017-10-30T00:02:57.116Z,1005.47
2017-10-30T00:04:07.084Z,1005.5
2017-10-30T00:05:17.368Z,1005.61
2017-10-30T00:06:27.914Z,1005.52
2017-10-30T00:07:38.209Z,1005.62
2017-10-30T00:08:47.845Z,1005.51
2017-10-30T00:09:58.135Z,1005.5
2017-10-30T00:11:08.441Z,1005.45
2017-10-30T00:12:18.975Z,1005.54
2017-10-30T00:13:28.959Z,1005.43
2017-10-30T00:14:38.595Z,1005.49
2017-10-30T00:15:48.906Z,1005.53
2017-10-30T00:16:59.228Z,1005.53
2017-10-30T00:18:09.785Z,1005.49
2017-10-30T00:19:20.078Z,1005.48
2017-10-30T00:20:30.039Z,1005.56
2017-10-30T00:21:39.993Z,1005.41
2017-10-30T00:22:50.276Z,1005.56
2017-10-30T00:24:00.825Z,1005.62
2017-10-30T00:25:11.118Z,1005.67
2017-10-30T00:26:21.091Z,1005.77
2017-10-30T00:27:31.376Z,1005.58
2017-10-30T00:28:41.676Z,1005.72
2017-10-30T00:29:51.884Z,1005.77
2017-10-30T00:31:02.177Z,1005.8
2017-10-30T00:32:12.460Z,1005.73
2017-10-30T00:33:22.748Z,1005.74
2017-10-30T00:34:33.032Z,1005.78
2017-10-30T00:35:43.243Z,1005.71
2017-10-30T00:36:53.533Z,1005.79
2017-10-30T00:38:03.820Z,1005.84
2017-10-30T00:39:14.122Z,1005.79
2017-10-30T00:40:24.092Z,1005.79
2017-10-30T00:41:34.035Z,1005.85
2017-10-30T00:42:44.016Z,1005.76
2017-10-30T00:43:54.308Z,1005.8
2017-10-30T00:45:04.597Z,1005.79
2017-10-30T00:46:14.892Z,1005.95
2017-10-30T00:47:25.424Z,1005.88
2017-10-30T00:48:35.741Z,1005.81
2017-10-30T00:49:46.026Z,1006.02
2017-10-30T00:50:56.314Z,1006.14
2017-10-30T00:52:06.271Z,1006.07
2017-10-30T00:53:16.807Z,1005.9
2017-10-30T00:54:27.090Z,1006.12
2017-10-30T00:55:37.392Z,1006.02
2017-10-30T00:56:47.675Z,1006.11
2017-10-30T00:57:57.975Z,1006.05
2017-10-30T00:59:08.525Z,1006.21
2017-10-30T01:00:18.491Z,1006.06
2017-10-30T01:01:28.460Z,1006.08
2017-10-30T01:02:38.421Z,1006.09
2017-10-30T01:03:48.726Z,1006.05
2017-10-30T01:04:58.956Z,1005.99
2017-10-30T01:06:09.251Z,1006.06
2017-10-30T01:07:19.230Z,1006.1
2017-10-30T01:08:29.519Z,1006.03
2017-10-30T01:09:39.813Z,1006.01
2017-10-30T01:10:50.366Z,1006.06
2017-10-30T01:12:00.649Z,1005.99
2017-10-30T01:13:10.951Z,1006.13
2017-10-30T01:14:20.928Z,1006.12
2017-10-30T01:15:31.243Z,1006.1
2017-10-30T01:16:41.780Z,1006.17
2017-10-30T01:17:51.749Z,1006.15
2017-10-30T01:19:02.039Z,1006.07
2017-10-30T01:20:12.338Z,1006.08
2017-10-30T01:21:22.648Z,1006.16
2017-10-30T01:22:33.181Z,1006.06
2017-10-30T01:23:43.166Z,1005.97
2017-10-30T01:24:53.446Z,1006.23
2017-10-30T01:26:03.734Z,1006.24
2017-10-30T01:27:13.696Z,1006.14
2017-10-30T01:28:24.281Z,1006.12
2017-10-30T01:29:34.241Z,1006.23
2017-10-30T01:30:44.529Z,1006.15
2017-10-30T01:31:54.485Z,1006.21
2017-10-30T01:33:04.768Z,1006.25
2017-10-30T01:34:15.318Z,1006.32
2017-10-30T01:35:25.279Z,1006.3
2017-10-30T01:36:35.567Z,1006.32
2017-10-30T01:37:45.542Z,1006.5
2017-10-30T01:38:55.826Z,1006.35
2017-10-30T01:40:06.360Z,1006.44
2017-10-30T01:41:16.645Z,1006.33
2017-10-30T01:42:26.290Z,1006.39
2017-10-30T01:43:36.599Z,1006.39
2017-10-30T01:44:46.880Z,1006.5
2017-10-30T01:45:57.092Z,1006.56
2017-10-30T01:47:07.046Z,1006.45
2017-10-30T01:48:17.336Z,1006.45
2017-10-30T01:49:27.633Z,1006.49
2017-10-30T01:50:37.621Z,1006.44
2017-10-30T01:51:48.178Z,1006.4
2017-10-30T01:52:58.141Z,1006.42
2017-10-30T01:54:08.105Z,1006.67
2017-10-30T01:55:18.092Z,1006.51
2017-10-30T01:56:28.396Z,1006.41
2017-10-30T01:57:38.616Z,1006.4
2017-10-30T01:58:48.911Z,1006.62
2017-10-30T01:59:59.197Z,1006.37
2017-10-30T02:01:09.149Z,1006.51
2017-10-30T02:02:19.439Z,1006.38
2017-10-30T02:03:29.665Z,1006.44
2017-10-30T02:04:39.622Z,1006.39
2017-10-30T02:05:49.585Z,1006.42
2017-10-30T02:06:59.893Z,1006.56
2017-10-30T02:08:10.475Z,1006.52
2017-10-30T02:09:20.700Z,1006.6
2017-10-30T02:10:31.000Z,1006.7
2017-10-30T02:11:41.285Z,1006.78
2017-10-30T02:12:51.257Z,1006.58
2017-10-30T02:14:01.222Z,1006.63
2017-10-30T02:15:11.750Z,1006.57
2017-10-30T02:16:21.712Z,1006.7
2017-10-30T02:17:31.705Z,1006.66
2017-10-30T02:18:41.982Z,1006.65
2017-10-30T02:19:52.291Z,1006.59
2017-10-30T02:21:02.508Z,1006.69
2017-10-30T02:22:12.802Z,1006.56
2017-10-30T02:23:23.106Z,1006.64
2017-10-30T02:24:33.394Z,1006.75
2017-10-30T02:25:43.675Z,1006.78
2017-10-30T02:26:54.212Z,1006.74
2017-10-30T02:28:04.496Z,1006.62
2017-10-30T02:29:14.794Z,1006.68
2017-10-30T02:30:25.076Z,1006.59
2017-10-30T02:31:35.376Z,1006.67
2017-10-30T02:32:45.932Z,1006.57
2017-10-30T02:33:56.219Z,1006.58
2017-10-30T02:35:06.521Z,1006.64
2017-10-30T02:36:16.810Z,1006.75
2017-10-30T02:37:27.107Z,1006.66
2017-10-30T02:38:37.014Z,1006.76
2017-10-30T02:39:47.317Z,1006.69
2017-10-30T02:40:57.625Z,1006.71
2017-10-30T02:42:07.591Z,1006.82
2017-10-30T02:43:17.561Z,1006.79
2017-10-30T02:44:28.108Z,1006.87
2017-10-30T02:45:38.073Z,1006.88
2017-10-30T02:46:48.380Z,1006.84
2017-10-30T02:47:58.666Z,1006.8
2017-10-30T02:49:08.645Z,1006.9
2017-10-30T02:50:18.857Z,1007
2017-10-30T02:51:29.181Z,1006.9
2017-10-30T02:52:38.811Z,1006.91
2017-10-30T02:53:49.144Z,1006.88
2017-10-30T02:54:59.428Z,1006.95
2017-10-30T02:56:09.971Z,1006.94
2017-10-30T02:57:20.264Z,1007.02
2017-10-30T02:58:30.560Z,1007.07
2017-10-30T02:59:40.841Z,1006.99
2017-10-30T03:00:51.137Z,1007.09
2017-10-30T03:02:01.352Z,1007.11
2017-10-30T03:03:11.314Z,1007.08
2017-10-30T03:04:21.274Z,1007.14
2017-10-30T03:05:31.583Z,1007.08
2017-10-30T03:06:41.870Z,1007.16
2017-10-30T03:07:52.410Z,1007.12
2017-10-30T03:09:02.706Z,1007.1
2017-10-30T03:10:13.022Z,1007.19
2017-10-30T03:11:23.347Z,1007.12
2017-10-30T03:12:33.633Z,1007.18
2017-10-30T03:13:44.164Z,1007.23
2017-10-30T03:14:54.457Z,1007.25
2017-10-30T03:16:04.430Z,1007.22
2017-10-30T03:17:14.713Z,1007.23
2017-10-30T03:18:25.006Z,1007.21
2017-10-30T03:19:35.625Z,1007.12
2017-10-30T03:20:45.614Z,1007.19
2017-10-30T03:21:55.245Z,1007.25
2017-10-30T03:23:05.540Z,1007.24
2017-10-30T03:24:15.518Z,1007.36
2017-10-30T03:25:25.396Z,1007.21
2017-10-30T03:26:35.353Z,1007.24
2017-10-30T03:27:45.686Z,1007.34
2017-10-30T03:28:55.969Z,1007.37
2017-10-30T03:30:06.257Z,1007.35
2017-10-30T03:31:16.482Z,1007.3
2017-10-30T03:32:26.766Z,1007.33
2017-10-30T03:33:37.053Z,1007.42
2017-10-30T03:34:47.013Z,1007.54
2017-10-30T03:35:56.653Z,1007.47
2017-10-30T03:37:06.865Z,1007.54
2017-10-30T03:38:17.151Z,1007.54
2017-10-30T03:39:27.106Z,1007.5
2017-10-30T03:40:37.076Z,1007.45
2017-10-30T03:41:47.376Z,1007.49
2017-10-30T03:42:57.922Z,1007.46
2017-10-30T03:44:07.900Z,1007.52
2017-10-30T03:45:17.863Z,1007.66
2017-10-30T03:46:28.145Z,1007.64
2017-10-30T03:47:38.116Z,1007.57
2017-10-30T03:48:48.658Z,1007.62
2017-10-30T03:49:58.610Z,1007.66
2017-10-30T03:51:08.605Z,1007.8
2017-10-30T03:52:18.894Z,1007.67
2017-10-30T03:53:28.850Z,1007.64
2017-10-30T03:54:39.393Z,1007.72
2017-10-30T03:55:49.357Z,1007.62
2017-10-30T03:56:59.338Z,1007.66
2017-10-30T03:58:09.629Z,1007.86
2017-10-30T03:59:19.927Z,1007.76
2017-10-30T04:00:29.815Z,1007.69
2017-10-30T04:01:40.105Z,1007.81
2017-10-30T04:02:50.058Z,1007.69
2017-10-30T04:04:00.036Z,1007.73
2017-10-30T04:05:10.328Z,1007.76
2017-10-30T04:06:20.542Z,1007.66
2017-10-30T04:07:30.849Z,1007.69
2017-10-30T04:08:40.808Z,1007.66
2017-10-30T04:09:51.127Z,1007.77
2017-10-30T04:11:01.101Z,1007.69
2017-10-30T04:12:11.635Z,1007.84
2017-10-30T04:13:21.606Z,1007.75
2017-10-30T04:14:31.897Z,1007.78
2017-10-30T04:15:41.546Z,1007.83
2017-10-30T04:16:51.520Z,1007.79
2017-10-30T04:18:02.062Z,1007.83
2017-10-30T04:19:12.022Z,1007.9
2017-10-30T04:20:22.316Z,1007.91
2017-10-30T04:21:32.608Z,1007.89
2017-10-30T04:22:42.893Z,1007.88
2017-10-30T04:23:53.115Z,1007.96
2017-10-30T04:25:03.857Z,1008
2017-10-30T04:26:14.157Z,1007.95
2017-10-30T04:27:24.453Z,1007.93
2017-10-30T04:28:34.415Z,1007.99
2017-10-30T04:29:44.628Z,1007.95
2017-10-30T04:30:54.916Z,1008.02
2017-10-30T04:32:05.202Z,1008.06
2017-10-30T04:33:15.161Z,1008.06
2017-10-30T04:34:25.449Z,1008.06
2017-10-30T04:35:35.999Z,1008.16
2017-10-30T04:36:46.289Z,1008.25
2017-10-30T04:37:56.267Z,1008.22
2017-10-30T04:39:06.562Z,1008.28
2017-10-30T04:40:16.855Z,1008.26
2017-10-30T04:41:27.416Z,1008.36
2017-10-30T04:42:37.717Z,1008.36
2017-10-30T04:43:47.674Z,1008.15
2017-10-30T04:44:57.975Z,1008.35
2017-10-30T04:46:07.954Z,1008.27
2017-10-30T04:47:18.497Z,1008.32
2017-10-30T04:48:28.793Z,1008.36
2017-10-30T04:49:39.083Z,1008.34
2017-10-30T04:50:49.375Z,1008.35
2017-10-30T04:51:59.337Z,1008.32
2017-10-30T04:53:09.869Z,1008.35
2017-10-30T04:54:20.157Z,1008.41
2017-10-30T04:55:29.794Z,1008.42
2017-10-30T04:56:41.001Z,1008.32
2017-10-30T04:57:51.292Z,1008.53
2017-10-30T04:59:01.503Z,1008.49
2017-10-30T05:00:11.796Z,1008.37
2017-10-30T05:01:21.763Z,1008.53
2017-10-30T05:02:32.050Z,1008.51
2017-10-30T05:03:42.343Z,1008.65
2017-10-30T05:04:52.558Z,1008.42
2017-10-30T05:06:02.853Z,1008.56
2017-10-30T05:07:13.156Z,1008.51
2017-10-30T05:08:22.795Z,1008.51
2017-10-30T05:09:33.076Z,1008.51
2017-10-30T05:10:43.635Z,1008.43
2017-10-30T05:11:53.926Z,1008.52
2017-10-30T05:13:04.243Z,1008.55
2017-10-30T05:14:14.542Z,1008.68
2017-10-30T05:15:24.837Z,1008.6
2017-10-30T05:16:35.392Z,1008.57
2017-10-30T05:17:45.683Z,1008.68
2017-10-30T05:18:55.970Z,1008.53
2017-10-30T05:20:06.266Z,1008.6
2017-10-30T05:21:16.554Z,1008.64
2017-10-30T05:22:26.498Z,1008.55
2017-10-30T05:23:36.789Z,1008.53
2017-10-30T05:24:46.744Z,1008.62
2017-10-30T05:25:57.031Z,1008.47
2017-10-30T05:27:07.319Z,1008.62
2017-10-30T05:28:17.872Z,1008.59
2017-10-30T05:29:27.513Z,1008.61
2017-10-30T05:30:37.821Z,1008.59
2017-10-30T05:31:47.781Z,1008.53
2017-10-30T05:32:58.077Z,1008.6
2017-10-30T05:34:08.620Z,1008.68
2017-10-30T05:35:18.574Z,1008.7
2017-10-30T05:36:28.863Z,1008.63
2017-10-30T05:37:39.147Z,1008.67
2017-10-30T05:38:49.444Z,1008.73
2017-10-30T05:39:59.983Z,1008.74
2017-10-30T05:41:10.286Z,1008.71
2017-10-30T05:42:20.606Z,1008.8
2017-10-30T05:43:30.887Z,1008.81
2017-10-30T05:44:41.194Z,1008.76
2017-10-30T05:45:51.727Z,1008.84
2017-10-30T05:47:01.697Z,1008.87
2017-10-30T05:48:11.668Z,1008.88
2017-10-30T05:49:21.691Z,1008.87
2017-10-30T05:50:31.324Z,1008.9
2017-10-30T05:51:41.542Z,1008.93
2017-10-30T05:52:51.845Z,1009.03
2017-10-30T05:54:02.155Z,1008.97
2017-10-30T05:55:12.137Z,1008.94
2017-10-30T05:56:22.438Z,1009.01
2017-10-30T05:57:32.352Z,1009.12
2017-10-30T05:58:42.318Z,1009.1
2017-10-30T05:59:52.616Z,1009.14
2017-10-30T06:01:02.919Z,1009.14
2017-10-30T06:02:13.220Z,1009.25
2017-10-30T06:03:23.762Z,1009.21
2017-10-30T06:04:33.726Z,1009.15
2017-10-30T06:05:43.678Z,1009.07
2017-10-30T06:06:53.651Z,1009.29
2017-10-30T06:08:03.956Z,1009.16
2017-10-30T06:09:14.548Z,1009.13
2017-10-30T06:10:24.821Z,1009.11
2017-10-30T06:11:34.455Z,1009.17
2017-10-30T06:12:44.421Z,1009.18
2017-10-30T06:13:54.728Z,1009.34
2017-10-30T06:15:04.941Z,1009.43
2017-10-30T06:16:15.240Z,1009.33
2017-10-30T06:17:25.209Z,1009.25
2017-10-30T06:18:35.501Z,1009.47
2017-10-30T06:19:45.465Z,1009.46
2017-10-30T06:20:55.730Z,1009.59
2017-10-30T06:22:06.023Z,1009.57
2017-10-30T06:23:16.319Z,1009.58
2017-10-30T06:24:26.603Z,1009.65
2017-10-30T06:25:36.883Z,1009.65
2017-10-30T06:26:46.780Z,1009.54
2017-10-30T06:27:57.069Z,1009.62
2017-10-30T06:29:07.359Z,1009.57
2017-10-30T06:30:17.668Z,1009.57
2017-10-30T06:31:27.658Z,1009.72
2017-10-30T06:32:38.187Z,1009.73
2017-10-30T06:33:48.502Z,1009.7
2017-10-30T06:34:58.790Z,1009.71
2017-10-30T06:36:09.099Z,1009.74
2017-10-30T06:37:19.055Z,1009.78
2017-10-30T06:38:29.618Z,1009.83
2017-10-30T06:39:39.904Z,1009.81
2017-10-30T06:40:49.897Z,1009.84
2017-10-30T06:42:00.199Z,1009.87
2017-10-30T06:43:10.154Z,1009.81
2017-10-30T06:44:20.704Z,1009.8
2017-10-30T06:45:30.987Z,1009.86
2017-10-30T06:46:40.619Z,1009.96
2017-10-30T06:47:50.900Z,1010.04
2017-10-30T06:49:01.197Z,1009.94
2017-10-30T06:50:11.750Z,1010.03
2017-10-30T06:51:21.712Z,1009.97
2017-10-30T06:52:32.029Z,1010.01
2017-10-30T06:53:42.349Z,1010.01
2017-10-30T06:54:52.634Z,1010.04
2017-10-30T06:56:03.186Z,1010.02
2017-10-30T06:57:13.500Z,1010.03
2017-10-30T06:58:23.822Z,1010.11
2017-10-30T06:59:34.102Z,1010.04
2017-10-30T07:00:44.408Z,1010.06
2017-10-30T07:01:54.972Z,1010.11
2017-10-30T07:03:04.970Z,1010.12
2017-10-30T07:04:15.291Z,1010.36
2017-10-30T07:05:25.621Z,1010.09
2017-10-30T07:06:35.915Z,1010.3
2017-10-30T07:07:46.455Z,1010.12
2017-10-30T07:08:56.421Z,1010.22
2017-10-30T07:10:06.385Z,1010.33
2017-10-30T07:11:16.675Z,1010.31
2017-10-30T07:12:26.996Z,1010.24
2017-10-30T07:13:37.540Z,1010.35
2017-10-30T07:14:47.833Z,1010.38
2017-10-30T07:15:58.153Z,1010.38
2017-10-30T07:17:08.441Z,1010.38
2017-10-30T07:18:18.404Z,1010.47
2017-10-30T07:19:28.624Z,1010.4
2017-10-30T07:20:38.940Z,1010.51
2017-10-30T07:21:49.471Z,1010.48
2017-10-30T07:22:59.760Z,1010.54
2017-10-30T07:24:10.066Z,1010.7
2017-10-30T07:25:20.610Z,1010.61
2017-10-30T07:26:30.896Z,1010.54
2017-10-30T07:27:40.865Z,1010.67
2017-10-30T07:28:51.175Z,1010.56
2017-10-30T07:30:01.472Z,1010.68
2017-10-30T07:31:11.037Z,1010.69
2017-10-30T07:32:21.021Z,1010.69
2017-10-30T07:33:30.990Z,1010.69
2017-10-30T07:34:40.638Z,1010.67
2017-10-30T07:35:50.622Z,1010.78
2017-10-30T07:37:01.161Z,1010.77
2017-10-30T07:38:11.132Z,1010.76
2017-10-30T07:39:21.424Z,1010.85
2017-10-30T07:40:31.061Z,1010.78
2017-10-30T07:41:41.355Z,1011.08
2017-10-30T07:42:51.571Z,1011.06
2017-10-30T07:44:01.876Z,1010.87
2017-10-30T07:45:11.861Z,1011.14
2017-10-30T07:46:21.509Z,1010.91
2017-10-30T07:47:31.790Z,1011.28
2017-10-30T07:48:42.014Z,1011.03
2017-10-30T07:49:52.316Z,1010.98
2017-10-30T07:51:02.601Z,1011
2017-10-30T07:52:12.900Z,1011.06
2017-10-30T07:53:22.878Z,1011.05
2017-10-30T07:54:33.092Z,1011.16
2017-10-30T07:55:43.393Z,1011.13
2017-10-30T07:56:53.716Z,1011.25
2017-10-30T07:58:03.703Z,1011.24
2017-10-30T07:59:13.682Z,1011.21
2017-10-30T08:00:24.281Z,1011.28
2017-10-30T08:01:34.558Z,1011.22
2017-10-30T08:02:44.870Z,1011.3
2017-10-30T08:03:55.180Z,1011.32
2017-10-30T08:05:05.481Z,1011.35
2017-10-30T08:06:15.714Z,1011.33
2017-10-30T08:07:25.679Z,1011.32
2017-10-30T08:08:35.971Z,1011.32
2017-10-30T08:09:46.264Z,1011.44
2017-10-30T08:10:56.260Z,1011.39
2017-10-30T08:12:06.812Z,1011.39
2017-10-30T08:13:17.119Z,1011.45
2017-10-30T08:14:27.101Z,1011.43
2017-10-30T08:15:37.409Z,1011.52
2017-10-30T08:16:47.697Z,1011.47
2017-10-30T08:17:58.133Z,1011.46
2017-10-30T08:19:08.430Z,1011.4
2017-10-30T08:20:18.762Z,1011.44
2017-10-30T08:21:29.053Z,1011.42
2017-10-30T08:22:39.354Z,1011.45
2017-10-30T08:23:49.962Z,1011.44
2017-10-30T08:24:59.929Z,1011.41
2017-10-30T08:26:10.257Z,1011.43
2017-10-30T08:27:20.561Z,1011.46
2017-10-30T08:28:30.208Z,1011.64
2017-10-30T08:29:40.430Z,1011.56
2017-10-30T08:30:50.722Z,1011.52
2017-10-30T08:32:00.695Z,1011.54
2017-10-30T08:33:10.678Z,1011.61
2017-10-30T08:34:20.669Z,1011.56
2017-10-30T08:35:31.206Z,1011.5
2017-10-30T08:36:41.527Z,1011.55
2017-10-30T08:37:51.817Z,1011.63
2017-10-30T08:39:01.792Z,1011.67
2017-10-30T08:40:12.106Z,1011.63
2017-10-30T08:41:22.660Z,1011.81
2017-10-30T08:42:32.637Z,1011.7
2017-10-30T08:43:42.627Z,1011.71
2017-10-30T08:44:52.930Z,1011.88
2017-10-30T08:46:03.240Z,1011.73
2017-10-30T08:47:13.525Z,1011.66
2017-10-30T08:48:23.807Z,1011.83
2017-10-30T08:49:34.131Z,1011.71
2017-10-30T08:50:44.437Z,1011.83
2017-10-30T08:51:54.761Z,1011.85
2017-10-30T08:53:05.312Z,1011.95
2017-10-30T08:54:15.618Z,1011.9
2017-10-30T08:55:25.953Z,1011.97
2017-10-30T08:56:36.247Z,1011.98
2017-10-30T08:57:46.583Z,1011.91
2017-10-30T08:58:57.135Z,1012.07
2017-10-30T09:00:07.131Z,1011.9
2017-10-30T09:01:17.441Z,1011.99
2017-10-30T09:02:27.411Z,1012.01
2017-10-30T09:03:37.713Z,1011.96
2017-10-30T09:04:48.259Z,1011.99
2017-10-30T09:05:58.249Z,1011.96
2017-10-30T09:07:08.249Z,1011.98
2017-10-30T09:08:18.544Z,1011.98
2017-10-30T09:09:28.851Z,1012.07
2017-10-30T09:10:39.407Z,1012.14
2017-10-30T09:11:49.385Z,1012.06
2017-10-30T09:12:59.673Z,1012.09
2017-10-30T09:14:09.966Z,1012.06
2017-10-30T09:15:19.948Z,1012.07
2017-10-30T09:16:30.521Z,1012.14
2017-10-30T09:17:40.492Z,1012.04
2017-10-30T09:18:50.145Z,1012.14
2017-10-30T09:20:00.132Z,1012.16
2017-10-30T09:21:10.116Z,1012.13
2017-10-30T09:22:20.688Z,1012.19
2017-10-30T09:23:30.990Z,1012.05
2017-10-30T09:24:40.992Z,1012.09
2017-10-30T09:25:51.356Z,1012.09
2017-10-30T09:27:01.662Z,1012.13
2017-10-30T09:28:11.882Z,1012.19
2017-10-30T09:29:21.856Z,1012.19
2017-10-30T09:30:31.833Z,1012.24
2017-10-30T09:31:42.147Z,1012.14
2017-10-30T09:32:52.476Z,1012.14
2017-10-30T09:34:02.754Z,1012.16
2017-10-30T09:35:13.102Z,1012.2
2017-10-30T09:36:23.399Z,1012.31
2017-10-30T09:37:33.415Z,1012.15
2017-10-30T09:38:43.717Z,1012.29
2017-10-30T09:39:53.948Z,1012.24
2017-10-30T09:41:04.247Z,1012.24
2017-10-30T09:42:14.223Z,1012.27
2017-10-30T09:43:24.532Z,1012.27
2017-10-30T09:44:34.862Z,1012.27
2017-10-30T09:45:45.419Z,1012.26
2017-10-30T09:46:55.727Z,1012.35
2017-10-30T09:48:06.046Z,1012.26
2017-10-30T09:49:16.025Z,1012.37
2017-10-30T09:50:26.332Z,1012
2017-10-30T09:51:36.246Z,1012.41
2017-10-30T09:52:46.584Z,1012.19
2017-10-30T09:53:56.918Z,1012.57
2017-10-30T09:55:06.889Z,1012.31
2017-10-30T09:56:16.854Z,1012.41
2017-10-30T09:57:27.065Z,1012.38
2017-10-30T09:58:37.042Z,1012.22
2017-10-30T09:59:47.346Z,1012.37
2017-10-30T10:00:57.676Z,1012.33
2017-10-30T10:02:07.995Z,1012.19
2017-10-30T10:03:18.231Z,1012.17
2017-10-30T10:04:28.533Z,1012.32
2017-10-30T10:05:38.840Z,1012.4
2017-10-30T10:06:49.136Z,1012.48
2017-10-30T10:07:59.447Z,1012.47
2017-10-30T10:09:09.664Z,1012.53
2017-10-30T10:10:19.975Z,1012.63
2017-10-30T10:11:29.944Z,1012.41
2017-10-30T10:12:40.249Z,1012.45
2017-10-30T10:13:50.216Z,1012.47
2017-10-30T10:15:00.442Z,1012.46
2017-10-30T10:16:10.420Z,1012.48
2017-10-30T10:17:20.736Z,1012.42
2017-10-30T10:18:31.046Z,1012.54
2017-10-30T10:19:41.345Z,1012.6
2017-10-30T10:20:51.566Z,1012.49
2017-10-30T10:22:01.857Z,1012.58
2017-10-30T10:23:11.840Z,1012.62
2017-10-30T10:24:22.157Z,1012.67
2017-10-30T10:25:32.478Z,1012.54
2017-10-30T10:26:43.065Z,1012.76
2017-10-30T10:27:53.388Z,1012.59
2017-10-30T10:29:03.700Z,1012.46
2017-10-30T10:30:13.346Z,1012.62
2017-10-30T10:31:23.649Z,1012.75
2017-10-30T10:32:34.194Z,1012.79
2017-10-30T10:33:44.482Z,1012.55
2017-10-30T10:34:54.797Z,1012.59
2017-10-30T10:36:05.113Z,1012.5
2017-10-30T10:37:15.440Z,1012.7
2017-10-30T10:38:26.006Z,1012.62
2017-10-30T10:39:36.310Z,1012.5
2017-10-30T10:40:46.632Z,1012.43
2017-10-30T10:41:56.947Z,1012.59
2017-10-30T10:43:06.961Z,1012.66
2017-10-30T10:44:17.532Z,1012.72
2017-10-30T10:45:27.846Z,1012.49
2017-10-30T10:46:37.842Z,1012.65
2017-10-30T10:47:47.841Z,1012.75
2017-10-30T10:48:57.821Z,1012.43
2017-10-30T10:50:08.392Z,1012.48
2017-10-30T10:51:18.691Z,1012.63
2017-10-30T10:52:28.990Z,1012.57
2017-10-30T10:53:39.310Z,1012.47
2017-10-30T10:54:49.628Z,1012.41
2017-10-30T10:56:00.174Z,1012.63
2017-10-30T10:57:10.480Z,1012.86
2017-10-30T10:58:20.807Z,1012.7
2017-10-30T10:59:30.793Z,1012.63
2017-10-30T11:00:41.097Z,1012.49
2017-10-30T11:01:51.648Z,1012.63
2017-10-30T11:03:01.620Z,1012.73
2017-10-30T11:04:11.268Z,1012.71
2017-10-30T11:05:21.251Z,1012.75
2017-10-30T11:06:31.556Z,1012.68
2017-10-30T11:07:42.123Z,1012.71
2017-10-30T11:08:52.108Z,1013.06
2017-10-30T11:10:01.762Z,1012.57
2017-10-30T11:11:12.068Z,1012.75
2017-10-30T11:12:22.380Z,1012.75
2017-10-30T11:13:32.598Z,1012.82
2017-10-30T11:14:42.576Z,1012.79
2017-10-30T11:15:52.561Z,1012.77
2017-10-30T11:17:02.873Z,1012.96
2017-10-30T11:18:13.202Z,1012.8
2017-10-30T11:19:23.428Z,1012.99
2017-10-30T11:20:33.722Z,1012.89
2017-10-30T11:21:44.035Z,1013.07
2017-10-30T11:22:54.019Z,1012.98
2017-10-30T11:24:03.672Z,1012.96
2017-10-30T11:25:14.222Z,1012.94
2017-10-30T11:26:24.530Z,1012.97
2017-10-30T11:27:34.824Z,1012.82
2017-10-30T11:28:44.807Z,1012.9
2017-10-30T11:29:54.786Z,1012.86
2017-10-30T11:31:05.058Z,1012.98
2017-10-30T11:32:15.369Z,1013.08
2017-10-30T11:33:25.675Z,1013.09
2017-10-30T11:34:35.979Z,1013.06
2017-10-30T11:35:46.280Z,1013.08
2017-10-30T11:36:56.513Z,1013.16
2017-10-30T11:38:06.817Z,1013.11
2017-10-30T11:39:17.128Z,1013.11
2017-10-30T11:40:27.449Z,1013.23
2017-10-30T11:41:37.756Z,1013.11
2017-10-30T11:42:48.314Z,1013.21
2017-10-30T11:43:58.315Z,1013.18
2017-10-30T11:45:08.623Z,1013.15
2017-10-30T11:46:18.918Z,1013.15
2017-10-30T11:47:29.228Z,1013.35
2017-10-30T11:48:39.458Z,1013.21
2017-10-30T11:49:49.772Z,1013.19
2017-10-30T11:51:00.087Z,1013.14
2017-10-30T11:52:10.406Z,1013.38
2017-10-30T11:53:20.397Z,1013.24
2017-10-30T11:54:30.312Z,1013.33
2017-10-30T11:55:41.033Z,1013.26
2017-10-30T11:56:51.335Z,1013.27
2017-10-30T11:58:01.646Z,1013.23
2017-10-30T11:59:11.990Z,1013.24
2017-10-30T12:00:22.555Z,1013.22
2017-10-30T12:01:32.855Z,1013.31
2017-10-30T12:02:43.178Z,1013.24
2017-10-30T12:03:53.497Z,1013.3
2017-10-30T12:05:03.812Z,1013.29
2017-10-30T12:06:14.048Z,1013.21
2017-10-30T12:07:24.355Z,1013.38
2017-10-30T12:08:34.345Z,1013.37
2017-10-30T12:09:44.646Z,1013.38
2017-10-30T12:10:54.957Z,1013.43
2017-10-30T12:12:05.520Z,1013.32
2017-10-30T12:13:15.820Z,1013.36
2017-10-30T12:14:26.118Z,1013.27
2017-10-30T12:15:36.109Z,1013.54
2017-10-30T12:16:46.081Z,1013.24
2017-10-30T12:17:56.698Z,1013.4
2017-10-30T12:19:07.008Z,1013.41
2017-10-30T12:20:17.323Z,1013.38
2017-10-30T12:21:27.625Z,1013.29
2017-10-30T12:22:37.937Z,1013.42
2017-10-30T12:23:48.486Z,1013.52
2017-10-30T12:24:58.805Z,1013.44
2017-10-30T12:26:09.127Z,1013.47
2017-10-30T12:27:19.427Z,1013.54
2017-10-30T12:28:29.739Z,1013.36
2017-10-30T12:29:40.349Z,1013.41
2017-10-30T12:30:50.326Z,1013.64
2017-10-30T12:32:00.294Z,1013.4
2017-10-30T12:33:10.265Z,1013.57
2017-10-30T12:34:20.573Z,1013.48
2017-10-30T12:35:30.844Z,1013.53
2017-10-30T12:36:41.162Z,1013.5
2017-10-30T12:37:51.476Z,1013.55
2017-10-30T12:39:01.776Z,1013.44
2017-10-30T12:40:12.097Z,1013.65
2017-10-30T12:41:22.373Z,1013.65
2017-10-30T12:42:32.840Z,1013.73
2017-10-30T12:43:43.143Z,1013.68
2017-10-30T12:44:53.448Z,1013.69
2017-10-30T12:46:03.425Z,1013.75
2017-10-30T12:47:14.038Z,1013.63
2017-10-30T12:48:24.003Z,1013.75
2017-10-30T12:49:33.978Z,1013.78
2017-10-30T12:50:44.278Z,1013.66
2017-10-30T12:51:54.585Z,1013.76
2017-10-30T12:53:04.806Z,1013.7
2017-10-30T12:54:15.103Z,1013.76
2017-10-30T12:55:25.068Z,1013.81
2017-10-30T12:56:35.358Z,1013.78
2017-10-30T12:57:45.353Z,1013.8
2017-10-30T12:58:55.947Z,1013.89
2017-10-30T13:00:05.917Z,1013.71
2017-10-30T13:01:16.222Z,1013.73
2017-10-30T13:02:26.527Z,1013.85
2017-10-30T13:03:36.828Z,1013.91
2017-10-30T13:04:47.115Z,1013.95
2017-10-30T13:05:57.076Z,1014.07
2017-10-30T13:07:07.078Z,1014
2017-10-30T13:08:17.368Z,1014.01
2017-10-30T13:09:27.370Z,1013.97
2017-10-30T13:10:37.567Z,1014.02
2017-10-30T13:11:47.860Z,1013.95
2017-10-30T13:12:58.174Z,1014.03
2017-10-30T13:14:08.466Z,1014.02
2017-10-30T13:15:18.765Z,1013.93
2017-10-30T13:16:29.039Z,1014.03
2017-10-30T13:17:39.018Z,1013.88
2017-10-30T13:18:49.313Z,1014.07
2017-10-30T13:19:59.286Z,1014.2
2017-10-30T13:21:09.280Z,1014.19
2017-10-30T13:22:19.832Z,1014.09
2017-10-30T13:23:29.795Z,1014.09
2017-10-30T13:24:40.113Z,1014.14
2017-10-30T13:25:50.091Z,1014.22
2017-10-30T13:27:00.058Z,1014.33
2017-10-30T13:28:10.660Z,1014.36
2017-10-30T13:29:20.648Z,1014.34
2017-10-30T13:30:30.625Z,1014.27
2017-10-30T13:31:40.602Z,1014.29
2017-10-30T13:32:50.900Z,1014.29
2017-10-30T13:34:01.189Z,1014.34
2017-10-30T13:35:11.490Z,1014.33
2017-10-30T13:36:21.467Z,1014.38
2017-10-30T13:37:31.761Z,1014.26
2017-10-30T13:38:41.431Z,1014.3
2017-10-30T13:39:52.033Z,1014.3
2017-10-30T13:41:02.349Z,1014.42
2017-10-30T13:42:12.648Z,1014.39
2017-10-30T13:43:22.624Z,1014.39
2017-10-30T13:44:32.939Z,1014.35
2017-10-30T13:45:43.488Z,1014.32
2017-10-30T13:46:53.776Z,1014.4
2017-10-30T13:48:04.074Z,1014.4
2017-10-30T13:49:14.380Z,1014.29
2017-10-30T13:50:24.680Z,1014.27
2017-10-30T13:51:34.918Z,1014.56
2017-10-30T13:52:45.216Z,1014.46
2017-10-30T13:53:55.524Z,1014.41
2017-10-30T13:55:05.824Z,1014.37
2017-10-30T13:56:15.812Z,1014.44
2017-10-30T13:57:26.410Z,1014.36
2017-10-30T13:58:36.378Z,1014.38
2017-10-30T13:59:46.679Z,1014.33
2017-10-30T14:00:56.969Z,1014.35
2017-10-30T14:02:07.281Z,1014.46
2017-10-30T14:03:17.505Z,1014.37
2017-10-30T14:04:27.476Z,1014.39
2017-10-30T14:05:37.453Z,1014.38
2017-10-30T14:06:47.757Z,1014.37
2017-10-30T14:07:58.088Z,1014.34
2017-10-30T14:09:08.662Z,1014.46
2017-10-30T14:10:18.626Z,1014.4
2017-10-30T14:11:28.948Z,1014.35
2017-10-30T14:12:39.249Z,1014.43